Time;durP1;ratioP1;P1;durP2;ratioP2;P2;SDS_P1;SDS_P2;PMS_P1;PMS_P2;Temp;Humidity;BMP_temperature;BMP_pressure;BME280_temperature;BME280_humidity;BME280_pressure;Samples;Min_cycle;Max_cycle;Signal;HPM_P1;HPM_P2
2023/08/12 00:00:07;;;;;;;9.20;5.25;;;15.10;99.90;;;;;;9958328;29;20383;-81
2023/08/12 00:05:29;;;;;;;10.02;6.57;;;15.00;99.90;;;;;;9945525;29;20208;-81
2023/08/12 00:10:51;;;;;;;10.38;5.85;;;14.90;1.00;;;;;;9944775;29;20227;-80
2023/08/12 00:16:12;;;;;;;12.05;6.53;;;14.80;1.00;;;;;;9986494;29;20214;-81
2023/08/12 00:21:33;;;;;;;11.85;5.53;;;14.80;1.00;;;;;;10007574;29;20202;-81
2023/08/12 00:26:55;;;;;;;10.25;5.85;;;14.80;1.00;;;;;;9986345;29;20238;-81
2023/08/12 00:32:16;;;;;;;10.90;6.20;;;14.70;1.00;;;;;;9944350;29;20231;-80
2023/08/12 00:37:39;;;;;;;10.18;6.78;;;14.70;99.90;;;;;;9944290;29;20552;-81
2023/08/12 00:43:00;;;;;;;10.57;5.57;;;14.70;99.90;;;;;;9951066;29;20215;-80
2023/08/12 00:48:23;;;;;;;10.57;5.90;;;14.60;99.90;;;;;;9944275;29;20206;-81
2023/08/12 00:53:46;;;;;;;11.75;5.93;;;14.50;99.90;;;;;;9931631;29;20238;-80
2023/08/12 00:59:09;;;;;;;10.20;6.35;;;14.50;62.50;;;;;;9951461;29;20215;-80
2023/08/12 01:04:31;;;;;;;11.48;6.25;;;14.40;1.00;;;;;;9965942;29;20237;-80
2023/08/12 01:09:52;;;;;;;12.18;6.97;;;14.40;1.00;;;;;;9928661;29;20221;-81
2023/08/12 01:15:17;;;;;;;9.32;6.28;;;14.30;99.90;;;;;;9947073;29;20265;-81
2023/08/12 01:20:39;;;;;;;12.40;5.88;;;14.30;1.00;;;;;;9955513;29;20211;-80
2023/08/12 01:26:00;;;;;;;15.32;6.35;;;14.30;88.30;;;;;;9969905;29;20260;-80
2023/08/12 01:31:37;;;;;;;10.60;6.63;;;14.30;61.30;;;;;;9974014;29;20222;-81
2023/08/12 01:37:03;;;;;;;17.70;7.45;;;14.20;1.00;;;;;;9967843;29;20430;-80
2023/08/12 01:42:24;;;;;;;23.85;7.70;;;14.20;99.90;;;;;;9969336;29;20275;-81
2023/08/12 01:47:50;;;;;;;15.25;6.90;;;14.20;1.00;;;;;;9948244;29;20210;-80
2023/08/12 01:53:11;;;;;;;12.20;6.72;;;14.10;1.00;;;;;;9954259;29;20465;-80
2023/08/12 01:58:32;;;;;;;16.35;7.30;;;14.10;1.00;;;;;;9965773;29;20273;-80
2023/08/12 02:03:53;;;;;;;16.05;7.43;;;14.10;1.00;;;;;;9991584;29;20228;-80
2023/08/12 02:09:15;;;;;;;19.67;7.55;;;14.00;99.90;;;;;;9953178;29;20209;-80
2023/08/12 02:14:36;;;;;;;21.73;7.13;;;14.00;1.00;;;;;;9970072;29;20456;-80
2023/08/12 02:19:59;;;;;;;24.15;7.88;;;14.00;1.00;;;;;;9998789;29;20198;-81
2023/08/12 02:25:20;;;;;;;19.63;7.57;;;14.00;1.00;;;;;;9928811;30;20528;-81
2023/08/12 02:30:44;;;;;;;17.77;7.55;;;14.00;99.90;;;;;;9930601;29;20293;-81
2023/08/12 02:36:06;;;;;;;19.73;7.43;;;14.00;1.00;;;;;;10001270;29;20306;-81
2023/08/12 02:41:27;;;;;;;19.80;7.13;;;13.90;1.00;;;;;;9952478;29;20380;-81
2023/08/12 02:46:48;;;;;;;15.05;6.85;;;13.90;1.00;;;;;;9951435;29;20502;-81
2023/08/12 02:52:09;;;;;;;15.63;6.82;;;13.90;1.00;;;;;;9915401;29;20253;-81
2023/08/12 02:57:31;;;;;;;19.13;7.53;;;14.00;99.90;;;;;;9927608;30;20220;-81
2023/08/12 03:02:52;;;;;;;18.92;7.72;;;13.90;95.40;;;;;;9927205;29;20236;-81
2023/08/12 03:08:14;;;;;;;18.15;7.78;;;13.80;1.00;;;;;;9952475;29;20203;-82
2023/08/12 03:13:36;;;;;;;20.25;7.88;;;13.80;1.00;;;;;;9965951;29;20244;-81
2023/08/12 03:18:58;;;;;;;13.05;6.40;;;13.80;99.90;;;;;;9978039;29;20217;-81
2023/08/12 03:24:19;;;;;;;14.77;6.30;;;13.80;1.00;;;;;;9959657;29;20375;-81
2023/08/12 03:29:41;;;;;;;16.65;7.13;;;13.80;1.00;;;;;;9971798;29;20211;-81
2023/08/12 03:35:03;;;;;;;12.93;5.68;;;13.80;1.00;;;;;;9967054;29;20264;-81
2023/08/12 03:40:25;;;;;;;12.90;5.85;;;13.70;1.00;;;;;;9959241;29;20236;-81
2023/08/12 03:45:48;;;;;;;10.93;5.68;;;13.80;20.60;;;;;;9958450;29;20441;-81
2023/08/12 03:51:12;;;;;;;12.48;5.95;;;13.80;99.90;;;;;;9959662;29;20214;-81
2023/08/12 03:56:34;;;;;;;10.57;5.43;;;13.80;99.90;;;;;;9958296;29;20505;-81
2023/08/12 04:01:57;;;;;;;9.43;4.95;;;13.80;99.90;;;;;;9970349;29;20374;-80
2023/08/12 04:07:18;;;;;;;8.82;4.95;;;13.80;99.90;;;;;;9971884;29;20224;-81
2023/08/12 04:12:41;;;;;;;10.23;5.13;;;13.80;1.00;;;;;;9970287;29;20552;-81
2023/08/12 04:18:03;;;;;;;8.63;4.95;;;13.90;1.00;;;;;;9967221;29;20462;-81
2023/08/12 04:23:25;;;;;;;9.82;5.07;;;14.00;1.00;;;;;;9969953;29;20229;-81
2023/08/12 04:28:46;;;;;;;8.93;4.80;;;14.00;1.00;;;;;;9969733;29;20378;-82
2023/08/12 04:34:08;;;;;;;8.02;4.35;;;14.10;1.00;;;;;;9956314;29;20261;-81
2023/08/12 04:39:29;;;;;;;7.47;4.25;;;14.40;1.00;;;;;;9955962;29;20412;-81
2023/08/12 04:44:51;;;;;;;5.53;3.78;;;14.50;1.00;;;;;;9956801;29;20559;-81
2023/08/12 04:50:13;;;;;;;5.20;3.72;;;14.70;99.90;;;;;;9943102;29;20216;-82
2023/08/12 04:55:37;;;;;;;8.70;4.20;;;14.70;5.10;;;;;;9956630;29;20572;-81
2023/08/12 05:01:00;;;;;;;6.35;4.10;;;14.80;1.00;;;;;;9956056;29;20274;-81
2023/08/12 05:06:22;;;;;;;5.45;3.22;;;14.90;1.00;;;;;;9968436;29;20241;-81
2023/08/12 05:11:44;;;;;;;6.20;4.20;;;14.90;1.00;;;;;;9968737;29;20237;-81
2023/08/12 05:17:07;;;;;;;7.00;3.60;;;14.90;1.00;;;;;;9991711;29;20210;-80
2023/08/12 05:22:29;;;;;;;6.70;3.78;;;15.00;1.00;;;;;;9967817;29;20521;-81
2023/08/12 05:27:50;;;;;;;5.50;3.70;;;15.00;1.00;;;;;;9955378;29;20567;-81
2023/08/12 05:33:12;;;;;;;8.52;3.50;;;15.10;1.00;;;;;;9966973;29;20229;-81
2023/08/12 05:38:33;;;;;;;6.03;3.20;;;15.20;99.90;;;;;;9967292;29;20318;-81
2023/08/12 05:43:55;;;;;;;5.80;3.65;;;15.20;99.90;;;;;;9954059;29;20216;-81
2023/08/12 05:49:16;;;;;;;6.22;3.45;;;15.50;99.90;;;;;;9952443;29;20210;-81
2023/08/12 05:54:37;;;;;;;6.50;3.53;;;15.60;1.00;;;;;;9944642;29;20243;-81
2023/08/12 05:59:58;;;;;;;7.72;4.43;;;15.90;1.00;;;;;;9929354;29;20570;-81
2023/08/12 06:05:20;;;;;;;9.50;4.70;;;16.30;99.90;;;;;;9947710;29;20293;-81
2023/08/12 06:10:41;;;;;;;7.82;4.25;;;17.00;99.90;;;;;;9966132;29;20206;-81
2023/08/12 06:16:02;;;;;;;7.63;3.88;;;17.40;1.00;;;;;;9973961;29;20291;-81
2023/08/12 06:21:24;;;;;;;9.65;3.95;;;17.70;1.00;;;;;;9973948;29;20317;-81
2023/08/12 06:26:45;;;;;;;6.05;3.58;;;18.00;1.00;;;;;;9940545;29;20390;-81
2023/08/12 06:32:06;;;;;;;7.50;3.30;;;18.20;99.90;;;;;;9965275;29;20495;-82
2023/08/12 06:37:28;;;;;;;8.38;3.85;;;18.50;99.90;;;;;;9962944;29;20239;-81
2023/08/12 06:42:49;;;;;;;4.95;3.08;;;18.80;99.90;;;;;;9952847;29;20205;-80
2023/08/12 06:48:10;;;;;;;5.40;2.83;;;19.10;99.90;;;;;;9951129;29;20215;-81
2023/08/12 06:53:32;;;;;;;4.60;3.28;;;19.60;24.30;;;;;;9965496;29;20234;-81
2023/08/12 06:58:53;;;;;;;6.40;3.25;;;19.90;1.00;;;;;;9964534;29;20203;-81
2023/08/12 07:04:14;;;;;;;6.65;3.13;;;19.90;1.00;;;;;;9949736;29;20209;-81
2023/08/12 07:09:36;;;;;;;3.97;3.10;;;20.00;1.00;;;;;;9939169;29;20257;-81
2023/08/12 07:14:57;;;;;;;8.43;2.95;;;20.00;1.00;;;;;;9976865;29;20253;-81
2023/08/12 07:20:18;;;;;;;8.80;3.42;;;20.30;1.00;;;;;;9993582;29;20212;-81
2023/08/12 07:25:40;;;;;;;15.13;6.38;;;20.90;1.00;;;;;;9951023;29;20222;-81
2023/08/12 07:31:01;;;;;;;7.32;4.40;;;21.40;1.00;;;;;;9964177;29;20224;-81
2023/08/12 07:36:23;;;;;;;6.28;3.97;;;21.40;1.00;;;;;;9963094;29;20562;-81
2023/08/12 07:41:44;;;;;;;5.75;3.08;;;21.60;1.00;;;;;;9973436;29;20390;-81
2023/08/12 07:47:05;;;;;;;10.38;3.38;;;21.80;1.00;;;;;;10001522;29;20282;-81
2023/08/12 07:52:26;;;;;;;7.95;3.38;;;22.30;1.00;;;;;;9948095;29;20551;-81
2023/08/12 07:57:48;;;;;;;6.90;3.80;;;22.50;1.00;;;;;;9963810;29;20760;-81
2023/08/12 08:03:10;;;;;;;7.45;2.90;;;22.90;1.00;;;;;;9950091;29;20315;-81
2023/08/12 08:08:31;;;;;;;7.43;3.40;;;23.60;1.00;;;;;;9955559;29;20226;-81
2023/08/12 08:13:52;;;;;;;12.40;3.10;;;23.90;1.00;;;;;;9960145;29;20323;-82
2023/08/12 08:19:13;;;;;;;4.75;2.55;;;24.30;1.00;;;;;;10007279;29;20453;-82
2023/08/12 08:24:35;;;;;;;5.85;3.05;;;24.80;1.00;;;;;;10007202;29;20200;-81
2023/08/12 08:29:56;;;;;;;7.95;2.65;;;25.20;1.00;;;;;;9965837;29;20374;-82
2023/08/12 08:35:19;;;;;;;7.10;2.85;;;25.80;1.00;;;;;;9956565;29;20335;-82
2023/08/12 08:40:40;;;;;;;5.35;2.50;;;26.40;1.00;;;;;;9970574;29;20196;-81
2023/08/12 08:46:02;;;;;;;4.03;2.63;;;26.80;1.00;;;;;;9956161;29;20208;-81
2023/08/12 08:51:25;;;;;;;11.02;2.35;;;27.50;1.00;;;;;;9969622;29;20484;-82
2023/08/12 08:56:49;;;;;;;5.43;2.45;;;27.80;1.00;;;;;;9955293;29;20523;-82
2023/08/12 09:02:17;;;;;;;7.40;3.05;;;27.70;1.00;;;;;;9943175;29;20217;-81
2023/08/12 09:07:40;;;;;;;6.45;2.70;;;28.20;99.90;;;;;;9955892;29;20249;-82
2023/08/12 09:13:02;;;;;;;3.40;2.50;;;28.90;99.90;;;;;;9941950;29;20239;-81
2023/08/12 09:18:24;;;;;;;3.63;2.15;;;28.90;99.90;;;;;;9967555;29;20207;-82
2023/08/12 09:23:45;;;;;;;4.22;2.08;;;29.10;99.90;;;;;;9955170;29;20468;-82
2023/08/12 09:29:06;;;;;;;3.25;1.90;;;29.60;99.90;;;;;;9966458;29;20247;-82
2023/08/12 09:34:27;;;;;;;9.18;2.58;;;29.90;99.90;;;;;;9942509;29;20236;-82
2023/08/12 09:39:51;;;;;;;5.32;2.60;;;30.40;99.90;;;;;;9954626;29;20334;-82
2023/08/12 09:45:12;;;;;;;5.80;2.15;;;30.00;99.90;;;;;;9938941;29;20212;-82
2023/08/12 09:50:36;;;;;;;6.72;2.72;;;30.30;99.90;;;;;;9954658;29;20274;-82
2023/08/12 09:56:06;;;;;;;2.88;1.73;;;30.30;99.90;;;;;;9953939;29;20232;-82
2023/08/12 10:01:27;;;;;;;4.90;2.95;;;29.70;99.90;;;;;;9964659;29;20243;-82
2023/08/12 10:06:49;;;;;;;9.98;2.65;;;29.60;99.90;;;;;;9966373;29;20231;-82
2023/08/12 10:12:12;;;;;;;4.90;2.65;;;29.90;99.90;;;;;;9953646;29;20220;-82
2023/08/12 10:17:35;;;;;;;6.50;2.25;;;30.20;99.90;;;;;;9972717;29;20212;-82
2023/08/12 10:23:03;;;;;;;6.55;3.20;;;30.70;99.90;;;;;;9961244;29;20226;-82
2023/08/12 10:28:24;;;;;;;7.35;2.35;;;31.00;99.90;;;;;;9978721;29;20224;-82
2023/08/12 10:33:49;;;;;;;8.60;2.72;;;30.80;99.90;;;;;;9973752;29;20294;-82
2023/08/12 10:39:10;;;;;;;4.53;2.95;;;30.40;99.90;;;;;;9952335;29;20546;-82
2023/08/12 10:44:51;;;;;;;4.75;1.90;;;30.50;99.90;;;;;;9964786;29;20232;-82
2023/08/12 10:50:20;;;;;;;10.60;2.40;;;31.20;99.90;;;;;;9972105;29;20204;-82
2023/08/12 10:55:41;;;;;;;7.68;3.03;;;31.60;99.90;;;;;;9981779;29;20435;-82
2023/08/12 11:01:08;;;;;;;7.95;2.65;;;31.30;99.90;;;;;;9951388;29;20508;-83
2023/08/12 11:06:30;;;;;;;4.10;2.20;;;31.80;99.90;;;;;;9965002;29;20213;-82
2023/08/12 11:11:59;;;;;;;3.40;2.35;;;31.90;99.90;;;;;;9964790;29;20227;-82
2023/08/12 11:17:27;;;;;;;3.22;1.90;;;32.20;99.90;;;;;;9976755;29;20212;-82
2023/08/12 11:22:50;;;;;;;6.18;2.08;;;32.20;99.90;;;;;;9959933;29;20214;-83
2023/08/12 11:28:11;;;;;;;12.98;2.83;;;32.20;99.90;;;;;;9997914;29;20219;-82
2023/08/12 11:33:32;;;;;;;4.78;2.03;;;31.70;99.90;;;;;;9972520;29;20236;-83
2023/08/12 11:38:54;;;;;;;2.40;1.60;;;31.80;99.90;;;;;;9963268;29;20263;-82
2023/08/12 11:44:16;;;;;;;9.05;1.90;;;31.50;99.90;;;;;;9957637;29;20212;-82
2023/08/12 11:49:37;;;;;;;4.75;2.13;;;31.50;99.90;;;;;;9970748;29;20212;-82
2023/08/12 11:54:59;;;;;;;3.72;1.90;;;31.70;99.90;;;;;;9958063;29;20269;-82
2023/08/12 12:00:20;;;;;;;3.00;1.70;;;31.70;99.90;;;;;;9945549;29;20273;-82
2023/08/12 12:05:41;;;;;;;3.58;1.98;;;31.70;99.90;;;;;;9957344;29;20212;-82
2023/08/12 12:11:06;;;;;;;4.95;1.83;;;31.70;99.90;;;;;;9970816;29;20279;-82
2023/08/12 12:16:41;;;;;;;6.70;2.53;;;31.60;99.90;;;;;;9968823;29;20232;-82
2023/08/12 12:22:05;;;;;;;3.40;2.25;;;31.70;99.90;;;;;;9959220;29;20204;-82
2023/08/12 12:27:27;;;;;;;4.85;2.20;;;31.50;99.90;;;;;;10007663;29;20234;-82
2023/08/12 12:32:48;;;;;;;5.70;2.20;;;31.10;99.90;;;;;;9972803;29;20252;-82
2023/08/12 12:38:09;;;;;;;2.72;1.73;;;31.30;99.90;;;;;;9969432;29;20267;-83
2023/08/12 12:43:31;;;;;;;5.75;2.00;;;31.30;99.90;;;;;;9944629;29;20215;-82
2023/08/12 12:49:15;;;;;;;5.20;2.30;;;31.40;99.90;;;;;;9969774;29;20204;-82
2023/08/12 12:55:04;;;;;;;4.50;2.20;;;31.20;99.90;;;;;;9966562;29;20294;-82
2023/08/12 13:00:26;;;;;;;3.78;2.50;;;30.60;99.90;;;;;;9968951;29;20193;-82
2023/08/12 13:05:47;;;;;;;4.78;2.08;;;30.50;99.90;;;;;;9942486;29;20216;-82
2023/08/12 13:11:08;;;;;;;5.07;2.13;;;30.60;99.90;;;;;;9953775;29;20446;-82
2023/08/12 13:16:30;;;;;;;2.95;2.38;;;30.50;99.90;;;;;;9968118;29;20239;-82
2023/08/12 13:21:51;;;;;;;3.80;2.75;;;30.50;99.90;;;;;;9956265;29;20227;-82
2023/08/12 13:27:13;;;;;;;11.50;5.75;;;30.50;99.90;;;;;;9967312;29;20257;-82
2023/08/12 13:32:34;;;;;;;26.40;7.32;;;30.20;99.90;;;;;;9966574;29;20570;-82
2023/08/12 13:37:56;;;;;;;10.55;6.03;;;30.00;99.90;;;;;;9967134;29;20289;-82
2023/08/12 13:43:17;;;;;;;11.05;4.90;;;29.50;99.90;;;;;;9941173;29;20263;-82
2023/08/12 13:48:38;;;;;;;17.67;5.88;;;29.40;99.90;;;;;;9954422;29;20216;-82
2023/08/12 13:53:59;;;;;;;11.88;6.90;;;29.10;99.90;;;;;;9953072;29;20293;-82
2023/08/12 13:59:21;;;;;;;12.02;4.93;;;28.80;99.90;;;;;;9966982;29;20228;-82
2023/08/12 14:04:42;;;;;;;15.18;3.80;;;28.70;99.90;;;;;;9951928;29;20227;-82
2023/08/12 14:10:04;;;;;;;4.00;2.47;;;28.60;99.90;;;;;;9966451;29;20241;-82
2023/08/12 14:15:25;;;;;;;12.35;6.40;;;28.40;99.90;;;;;;9964723;29;20486;-82
2023/08/12 14:20:46;;;;;;;24.02;13.07;;;28.30;99.90;;;;;;9916209;29;20197;-82
2023/08/12 14:26:08;;;;;;;9.63;5.35;;;28.40;99.90;;;;;;9998767;29;20252;-82
2023/08/12 14:31:29;;;;;;;7.40;4.40;;;28.50;99.90;;;;;;9953316;29;20463;-82
2023/08/12 14:36:50;;;;;;;14.73;6.75;;;28.80;99.90;;;;;;9964617;29;20248;-82
2023/08/12 14:42:12;;;;;;;7.55;3.58;;;28.60;99.90;;;;;;9978497;29;20204;-81
2023/08/12 14:47:33;;;;;;;6.22;3.58;;;28.50;99.90;;;;;;9951678;29;20246;-81
2023/08/12 14:52:55;;;;;;;14.48;6.90;;;28.00;99.90;;;;;;9952275;29;20277;-80
2023/08/12 14:58:17;;;;;;;5.18;3.28;;;27.80;99.90;;;;;;9963614;29;20265;-81
2023/08/12 15:03:38;;;;;;;6.32;3.70;;;27.60;99.90;;;;;;9977502;29;20480;-82
2023/08/12 15:08:59;;;;;;;9.50;4.82;;;27.50;99.90;;;;;;9951257;29;20227;-81
2023/08/12 15:14:21;;;;;;;9.88;4.90;;;27.30;99.90;;;;;;9951569;29;20259;-82
2023/08/12 15:19:42;;;;;;;8.55;4.15;;;27.20;99.90;;;;;;9958762;29;20212;-81
2023/08/12 15:25:04;;;;;;;6.43;3.38;;;27.20;99.90;;;;;;9939525;29;20204;-82
2023/08/12 15:30:25;;;;;;;6.78;2.95;;;27.10;99.90;;;;;;9963566;29;20208;-81
2023/08/12 15:35:48;;;;;;;10.55;2.92;;;27.00;99.90;;;;;;9951082;29;20236;-81
2023/08/12 15:41:13;;;;;;;6.63;3.70;;;27.00;99.90;;;;;;9950656;29;20287;-81
2023/08/12 15:46:34;;;;;;;5.93;3.42;;;27.10;99.90;;;;;;9951278;29;20212;-82
2023/08/12 15:51:56;;;;;;;6.00;3.47;;;27.10;99.90;;;;;;9937871;29;20219;-81
2023/08/12 15:57:17;;;;;;;5.70;3.22;;;27.20;99.90;;;;;;9951295;29;20230;-82
2023/08/12 16:02:38;;;;;;;5.07;2.30;;;27.20;99.90;;;;;;9950131;29;20238;-82
2023/08/12 16:08:00;;;;;;;5.40;2.72;;;27.20;99.90;;;;;;9951119;29;20219;-82
2023/08/12 16:14:03;;;;;;;7.13;3.92;;;27.20;99.90;;;;;;9963113;29;20235;-82
2023/08/12 16:19:24;;;;;;;7.15;2.63;;;27.10;99.90;;;;;;9963424;29;20671;-82
2023/08/12 16:24:46;;;;;;;3.97;2.00;;;26.90;99.90;;;;;;9987306;29;20211;-81
2023/08/12 16:30:08;;;;;;;4.20;2.30;;;26.70;99.90;;;;;;10000282;29;20196;-81
2023/08/12 16:35:29;;;;;;;4.18;2.08;;;26.60;99.90;;;;;;9969814;29;20252;-81
2023/08/12 16:40:51;;;;;;;5.75;2.95;;;26.60;99.90;;;;;;9968653;29;20223;-81
2023/08/12 16:46:12;;;;;;;3.60;2.42;;;26.50;99.90;;;;;;9957128;29;20196;-82
2023/08/12 16:51:34;;;;;;;5.80;3.10;;;26.30;99.90;;;;;;9981337;29;20491;-82
2023/08/12 16:56:55;;;;;;;4.30;3.10;;;26.20;99.90;;;;;;9969100;29;20232;-82
2023/08/12 17:02:16;;;;;;;4.32;3.00;;;26.10;99.90;;;;;;9942221;29;20572;-82
2023/08/12 17:07:38;;;;;;;6.30;3.58;;;25.90;99.90;;;;;;9968683;29;20201;-81
2023/08/12 17:12:59;;;;;;;7.13;3.58;;;25.90;99.90;;;;;;9954461;29;20212;-81
2023/08/12 17:18:21;;;;;;;7.40;3.20;;;25.70;99.90;;;;;;9955115;29;20204;-82
2023/08/12 17:23:41;;;;;;;3.80;2.83;;;25.60;99.90;;;;;;9957924;29;20208;-82
2023/08/12 17:29:03;;;;;;;6.95;2.47;;;25.50;99.90;;;;;;9997547;29;20213;-82
2023/08/12 17:34:25;;;;;;;4.32;2.60;;;25.40;99.90;;;;;;9954963;29;20255;-82
2023/08/12 17:39:46;;;;;;;3.35;2.78;;;25.30;99.90;;;;;;9978314;29;20236;-81
2023/08/12 17:45:08;;;;;;;4.70;3.10;;;25.10;99.90;;;;;;9966702;29;20240;-81
2023/08/12 17:50:30;;;;;;;5.10;4.55;;;25.00;99.90;;;;;;9953990;29;20208;-82
2023/08/12 17:55:51;;;;;;;7.60;4.60;;;24.90;99.90;;;;;;9967496;29;20235;-81
2023/08/12 18:01:12;;;;;;;4.10;3.70;;;24.80;99.90;;;;;;9965262;29;20204;-82
2023/08/12 18:06:33;;;;;;;10.70;3.72;;;24.70;99.90;;;;;;9966825;29;20205;-82
2023/08/12 18:11:54;;;;;;;5.60;4.10;;;24.50;99.90;;;;;;9952740;29;20225;-82
2023/08/12 18:17:16;;;;;;;4.53;3.40;;;24.40;99.90;;;;;;9966162;29;20292;-81
2023/08/12 18:22:37;;;;;;;12.98;4.57;;;24.40;99.90;;;;;;9941316;29;20208;-81
2023/08/12 18:27:59;;;;;;;8.75;4.47;;;24.20;99.90;;;;;;10003736;29;20206;-81
2023/08/12 18:33:20;;;;;;;10.45;5.15;;;24.10;99.90;;;;;;9953358;29;20232;-81
2023/08/12 18:38:41;;;;;;;18.25;11.02;;;24.10;99.90;;;;;;9952294;29;20266;-82
2023/08/12 18:44:03;;;;;;;20.67;10.80;;;24.00;99.90;;;;;;9940645;29;20265;-81
2023/08/12 18:49:24;;;;;;;18.05;9.30;;;23.90;99.90;;;;;;9977449;29;20296;-81
2023/08/12 18:54:45;;;;;;;17.38;9.02;;;23.90;99.90;;;;;;9965415;29;20299;-81
2023/08/12 19:00:07;;;;;;;13.00;8.82;;;23.80;99.90;;;;;;9963987;29;20295;-81
2023/08/12 19:05:29;;;;;;;23.35;9.68;;;23.70;1.00;;;;;;9978180;29;20201;-81
2023/08/12 19:10:57;;;;;;;10.77;7.22;;;23.70;1.00;;;;;;9963374;29;20499;-82
2023/08/12 19:16:18;;;;;;;13.57;8.15;;;23.60;1.00;;;;;;9951973;29;20256;-81
2023/08/12 19:21:39;;;;;;;10.00;6.78;;;23.50;1.00;;;;;;9950757;29;20208;-82
2023/08/12 19:27:00;;;;;;;10.88;7.05;;;23.40;1.00;;;;;;9989588;29;20274;-81
2023/08/12 19:32:22;;;;;;;19.50;8.98;;;23.40;1.00;;;;;;9972608;29;20204;-82
2023/08/12 19:37:43;;;;;;;19.98;9.95;;;23.30;1.00;;;;;;9951196;29;20409;-81
2023/08/12 19:43:04;;;;;;;14.27;9.13;;;23.30;1.00;;;;;;9961259;29;20236;-81
2023/08/12 19:48:26;;;;;;;13.68;7.30;;;23.20;1.00;;;;;;9951687;29;20200;-81
2023/08/12 19:53:47;;;;;;;10.77;7.18;;;23.20;1.00;;;;;;9959375;29;20232;-81
2023/08/12 19:59:08;;;;;;;13.98;8.65;;;23.10;1.00;;;;;;9938085;29;20215;-81
2023/08/12 20:04:30;;;;;;;12.77;7.63;;;23.00;1.00;;;;;;9962930;29;20216;-81
2023/08/12 20:09:52;;;;;;;16.15;9.15;;;23.00;1.00;;;;;;9944586;29;20553;-81
2023/08/12 20:15:13;;;;;;;14.35;8.68;;;23.00;1.00;;;;;;9957868;29;20235;-82
2023/08/12 20:20:34;;;;;;;14.73;7.85;;;22.90;1.00;;;;;;9944638;29;20239;-81
2023/08/12 20:25:55;;;;;;;13.27;7.75;;;22.80;1.00;;;;;;9951382;29;20208;-81
2023/08/12 20:31:17;;;;;;;12.68;7.43;;;22.80;1.00;;;;;;9956290;29;20219;-82
2023/08/12 20:36:38;;;;;;;14.60;7.95;;;22.80;1.00;;;;;;9944440;29;20248;-82
2023/08/12 20:42:05;;;;;;;12.95;7.13;;;22.70;1.00;;;;;;9956507;29;20212;-81
2023/08/12 20:47:27;;;;;;;11.55;6.10;;;22.70;1.00;;;;;;9972015;29;20223;-82
2023/08/12 20:52:48;;;;;;;7.07;5.18;;;22.60;1.00;;;;;;9955775;29;20212;-82
2023/08/12 20:58:10;;;;;;;9.77;5.47;;;22.60;1.00;;;;;;9956778;29;20255;-82
2023/08/12 21:03:31;;;;;;;8.38;5.22;;;22.60;1.00;;;;;;9968035;29;20208;-82
2023/08/12 21:08:52;;;;;;;9.40;5.53;;;22.50;1.00;;;;;;9943439;29;20210;-82
2023/08/12 21:14:14;;;;;;;7.72;4.80;;;22.40;1.00;;;;;;9954206;29;20258;-82
2023/08/12 21:19:35;;;;;;;6.18;4.53;;;22.40;1.00;;;;;;9967626;29;20275;-82
2023/08/12 21:24:56;;;;;;;7.63;4.90;;;22.30;1.00;;;;;;9967125;29;20725;-82
2023/08/12 21:30:18;;;;;;;8.90;4.70;;;22.30;1.00;;;;;;9995454;29;20217;-82
2023/08/12 21:35:39;;;;;;;9.15;5.30;;;22.20;10.40;;;;;;9967685;29;20251;-82
2023/08/12 21:41:00;;;;;;;11.32;5.45;;;22.10;80.60;;;;;;9953644;29;20283;-82
2023/08/12 21:46:22;;;;;;;6.57;4.85;;;22.10;99.90;;;;;;9994527;29;20268;-82
2023/08/12 21:51:43;;;;;;;7.80;4.40;;;22.00;99.90;;;;;;9970203;29;20240;-82
2023/08/12 21:57:05;;;;;;;6.72;4.90;;;22.00;1.00;;;;;;9967475;29;20484;-81
2023/08/12 22:02:27;;;;;;;6.82;5.00;;;22.00;99.90;;;;;;9966043;29;20284;-81
2023/08/12 22:07:48;;;;;;;7.63;5.20;;;21.80;1.00;;;;;;9941496;29;20258;-81
2023/08/12 22:13:09;;;;;;;8.57;5.22;;;21.80;1.00;;;;;;9953125;29;20212;-82
2023/08/12 22:18:31;;;;;;;8.88;5.30;;;21.70;78.60;;;;;;9966388;29;20529;-82
2023/08/12 22:23:53;;;;;;;9.23;5.80;;;;;;;;;;9982487;29;20567;-82
2023/08/12 22:29:14;;;;;;;9.13;6.07;;;;;;;;;;10002507;29;20555;-82
2023/08/12 22:34:35;;;;;;;11.05;6.35;;;21.40;99.90;;;;;;9978556;29;20258;-82
2023/08/12 22:39:57;;;;;;;11.00;6.97;;;;;;;;;;9951998;29;20284;-82
2023/08/12 22:45:18;;;;;;;10.60;6.68;;;;;;;;;;9984658;29;20203;-82
2023/08/12 22:50:39;;;;;;;9.73;6.72;;;21.50;2.50;;;;;;9991435;29;20212;-82
2023/08/12 22:56:00;;;;;;;12.75;7.93;;;21.60;1.00;;;;;;9952745;29;20228;-82
2023/08/12 23:01:22;;;;;;;13.80;7.97;;;;;;;;;;9964223;29;20509;-82
2023/08/12 23:06:43;;;;;;;16.38;8.93;;;;;;;;;;9965250;29;20280;-82
2023/08/12 23:12:05;;;;;;;13.13;8.82;;;;;;;;;;9964090;29;20296;-82
2023/08/12 23:17:27;;;;;;;12.75;7.80;;;;;;;;;;9951968;29;20257;-82
2023/08/12 23:22:48;;;;;;;16.52;9.95;;;;;;;;;;9947478;29;20207;-81
2023/08/12 23:28:11;;;;;;;11.07;7.68;;;;;;;;;;9997748;29;20200;-82
2023/08/12 23:33:35;;;;;;;10.77;7.38;;;21.00;28.70;;;;;;9939696;29;20221;-82
2023/08/12 23:38:56;;;;;;;13.02;7.03;;;;;;;;;;9980594;29;20323;-82
2023/08/12 23:44:17;;;;;;;10.75;6.65;;;21.00;1.00;;;;;;9946383;29;20230;-82
2023/08/12 23:49:38;;;;;;;9.45;6.97;;;20.90;1.00;;;;;;9958116;29;20281;-81
2023/08/12 23:55:00;;;;;;;10.40;7.05;;;20.80;1.00;;;;;;9971449;29;20232;-82
